Time;durP1;ratioP1;P1;durP2;ratioP2;P2;SDS_P1;SDS_P2;PMS_P1;PMS_P2;Temp;Humidity;BMP_temperature;BMP_pressure;BME280_temperature;BME280_humidity;BME280_pressure;Samples;Min_cycle;Max_cycle;Signal;HPM_P1;HPM_P2
2021/09/13 00:01:54;;;;;;;9.13;5.72;;;13.80;99.90;;;;;;5012214;28;20045;-55
2021/09/13 00:04:20;;;;;;;9.13;5.13;;;13.80;99.90;;;;;;5010228;28;20506;-55
2021/09/13 00:06:46;;;;;;;11.30;5.22;;;13.80;99.90;;;;;;4990849;28;20043;-55
2021/09/13 00:09:11;;;;;;;8.60;5.40;;;13.80;99.90;;;;;;4996200;28;20061;-55
2021/09/13 00:11:37;;;;;;;10.80;5.32;;;13.80;99.90;;;;;;4989338;28;20046;-51
2021/09/13 00:14:03;;;;;;;9.05;5.38;;;13.80;99.90;;;;;;4973544;28;20057;-53
2021/09/13 00:16:28;;;;;;;8.35;5.32;;;13.80;99.90;;;;;;5009024;28;20116;-54
2021/09/13 00:18:54;;;;;;;11.55;5.55;;;13.80;99.90;;;;;;5004096;28;20126;-53
2021/09/13 00:21:20;;;;;;;10.60;5.53;;;13.80;99.90;;;;;;4999942;28;20076;-53
2021/09/13 00:23:46;;;;;;;12.70;5.15;;;13.80;99.90;;;;;;4947871;28;20066;-52
2021/09/13 00:26:11;;;;;;;9.65;4.97;;;13.80;99.90;;;;;;4992666;28;20084;-53
2021/09/13 00:28:37;;;;;;;10.93;5.43;;;13.80;99.90;;;;;;4978081;28;20041;-53
2021/09/13 00:31:03;;;;;;;10.75;4.60;;;13.70;99.90;;;;;;5000306;28;20053;-53
2021/09/13 00:33:29;;;;;;;10.73;5.70;;;13.80;99.90;;;;;;4993426;28;20057;-55
2021/09/13 00:35:54;;;;;;;11.77;5.40;;;13.70;99.90;;;;;;5008564;28;20041;-53
2021/09/13 00:38:20;;;;;;;9.63;4.95;;;13.70;99.90;;;;;;5010423;28;20044;-54
2021/09/13 00:40:45;;;;;;;8.57;4.47;;;13.70;99.90;;;;;;5003122;28;20042;-54
2021/09/13 00:43:12;;;;;;;8.52;4.70;;;13.70;99.90;;;;;;5002911;28;20112;-54
2021/09/13 00:45:37;;;;;;;10.63;4.82;;;13.70;99.90;;;;;;5003144;28;20396;-52
2021/09/13 00:48:03;;;;;;;9.88;5.07;;;13.70;99.90;;;;;;4996359;28;20407;-53
2021/09/13 00:50:29;;;;;;;7.68;4.43;;;13.70;99.90;;;;;;4996643;28;20042;-54
2021/09/13 00:52:55;;;;;;;7.25;4.43;;;13.70;99.90;;;;;;4995296;28;20506;-54
2021/09/13 00:55:22;;;;;;;8.93;4.40;;;13.70;99.90;;;;;;4995990;28;20886;-54
2021/09/13 00:57:50;;;;;;;8.50;4.53;;;13.70;99.90;;;;;;4998581;28;20034;-53
2021/09/13 01:00:16;;;;;;;7.68;4.75;;;13.70;99.90;;;;;;4994819;28;20085;-53
2021/09/13 01:02:42;;;;;;;10.30;4.72;;;13.70;99.90;;;;;;5000387;28;20033;-53
2021/09/13 01:05:09;;;;;;;9.88;4.68;;;13.70;99.90;;;;;;4995008;28;20042;-54
2021/09/13 01:07:34;;;;;;;11.40;4.65;;;13.70;99.90;;;;;;4994369;28;20422;-54
2021/09/13 01:10:01;;;;;;;7.40;4.85;;;13.80;99.90;;;;;;4996936;28;20046;-54
2021/09/13 01:12:26;;;;;;;8.70;4.95;;;13.80;99.90;;;;;;5008706;28;20165;-53
2021/09/13 01:14:52;;;;;;;13.90;5.28;;;13.80;99.90;;;;;;4991288;28;20165;-52
2021/09/13 01:17:18;;;;;;;11.07;4.65;;;13.80;99.90;;;;;;4996138;28;20141;-53
2021/09/13 01:19:43;;;;;;;11.52;4.72;;;13.90;99.90;;;;;;4995338;28;20489;-54
2021/09/13 01:22:12;;;;;;;8.40;4.85;;;13.90;99.90;;;;;;4976190;28;20084;-54
2021/09/13 01:24:38;;;;;;;8.18;3.67;;;14.00;99.90;;;;;;4975960;28;20053;-54
2021/09/13 01:27:06;;;;;;;9.00;3.60;;;14.00;99.90;;;;;;4993751;28;20403;-54
2021/09/13 01:29:32;;;;;;;8.68;2.95;;;14.10;99.90;;;;;;4992382;28;20035;-54
2021/09/13 01:31:58;;;;;;;8.85;2.72;;;14.10;99.90;;;;;;4992630;28;20042;-54
2021/09/13 01:34:24;;;;;;;7.07;2.80;;;14.10;99.90;;;;;;4993176;28;20129;-53
2021/09/13 01:36:50;;;;;;;13.02;3.15;;;14.20;99.90;;;;;;4991759;28;20125;-52
2021/09/13 01:39:16;;;;;;;8.40;2.58;;;14.30;99.90;;;;;;5010267;28;20521;-49
2021/09/13 01:41:43;;;;;;;6.78;2.58;;;14.30;99.90;;;;;;5009772;28;20049;-52
2021/09/13 01:44:09;;;;;;;7.00;2.88;;;14.40;99.90;;;;;;4993876;28;20041;-52
2021/09/13 01:46:35;;;;;;;6.25;3.22;;;14.40;99.90;;;;;;5028263;28;20116;-53
2021/09/13 01:49:03;;;;;;;7.65;3.75;;;14.40;99.90;;;;;;5012766;28;20110;-53
2021/09/13 01:51:28;;;;;;;7.28;3.13;;;14.40;99.90;;;;;;4986648;28;20495;-53
2021/09/13 01:53:54;;;;;;;8.52;3.92;;;14.40;99.90;;;;;;4991361;28;20042;-52
2021/09/13 01:56:19;;;;;;;7.65;3.47;;;14.40;99.90;;;;;;5010260;28;20045;-52
2021/09/13 01:58:45;;;;;;;6.00;3.28;;;14.40;99.90;;;;;;5007889;28;20037;-52
2021/09/13 02:01:11;;;;;;;6.55;3.53;;;14.40;99.90;;;;;;4993331;28;20096;-52
2021/09/13 02:03:37;;;;;;;7.45;3.70;;;14.40;99.90;;;;;;5001779;28;20088;-52
2021/09/13 02:06:02;;;;;;;8.52;3.42;;;14.30;99.90;;;;;;5018709;28;20065;-53
2021/09/13 02:08:28;;;;;;;9.40;3.97;;;14.40;99.90;;;;;;5006468;28;20037;-49
2021/09/13 02:10:55;;;;;;;6.78;4.07;;;14.30;99.90;;;;;;4999566;28;20045;-48
2021/09/13 02:13:20;;;;;;;10.15;4.20;;;14.40;99.90;;;;;;5016745;28;20125;-52
2021/09/13 02:15:46;;;;;;;7.32;3.72;;;14.30;99.90;;;;;;4978136;28;20049;-49
2021/09/13 02:18:11;;;;;;;10.90;4.30;;;14.30;99.90;;;;;;5010095;28;20527;-52
2021/09/13 02:20:37;;;;;;;10.45;4.22;;;14.30;99.90;;;;;;4984287;28;20470;-50
2021/09/13 02:23:02;;;;;;;8.43;3.90;;;14.30;99.90;;;;;;4994341;28;20590;-52
2021/09/13 02:25:28;;;;;;;8.55;4.05;;;14.30;99.90;;;;;;4991024;28;20035;-49
2021/09/13 02:27:54;;;;;;;13.18;4.70;;;14.30;99.90;;;;;;4992557;28;20031;-53
2021/09/13 02:30:19;;;;;;;9.18;4.28;;;14.30;99.90;;;;;;4962584;28;20041;-52
2021/09/13 02:32:45;;;;;;;6.38;4.10;;;14.30;99.90;;;;;;4997451;28;20097;-50
2021/09/13 02:35:10;;;;;;;9.90;4.53;;;14.30;99.90;;;;;;5000155;28;20084;-49
2021/09/13 02:37:37;;;;;;;9.05;4.10;;;14.30;99.90;;;;;;5004121;28;20044;-51
2021/09/13 02:40:05;;;;;;;9.10;4.88;;;14.30;99.90;;;;;;5002538;28;20379;-51
2021/09/13 02:42:31;;;;;;;11.43;4.57;;;14.30;99.90;;;;;;4975587;28;20081;-52
2021/09/13 02:44:56;;;;;;;12.88;4.93;;;14.30;99.90;;;;;;4992044;28;20046;-50
2021/09/13 02:47:22;;;;;;;9.63;4.70;;;14.30;99.90;;;;;;5004761;28;20192;-52
2021/09/13 02:49:48;;;;;;;9.05;4.53;;;14.30;99.90;;;;;;4988317;28;20034;-54
2021/09/13 02:52:14;;;;;;;11.23;4.80;;;14.30;99.90;;;;;;5006131;28;20041;-49
2021/09/13 02:54:39;;;;;;;10.90;4.80;;;14.30;99.90;;;;;;4998967;28;20109;-50
2021/09/13 02:57:05;;;;;;;8.38;4.72;;;14.30;99.90;;;;;;5009495;28;20517;-49
2021/09/13 02:59:31;;;;;;;9.23;4.97;;;14.40;99.90;;;;;;5013038;28;20044;-52
2021/09/13 03:01:56;;;;;;;8.80;4.32;;;14.30;99.90;;;;;;5006241;28;20446;-54
2021/09/13 03:04:22;;;;;;;12.93;5.07;;;14.40;99.90;;;;;;5012688;28;20124;-51
2021/09/13 03:06:47;;;;;;;14.07;4.68;;;14.40;99.90;;;;;;5012334;28;20117;-52
2021/09/13 03:09:13;;;;;;;8.13;4.75;;;14.40;99.90;;;;;;5006292;28;20116;-52
2021/09/13 03:11:39;;;;;;;14.00;4.95;;;14.40;99.90;;;;;;4997548;28;20043;-53
2021/09/13 03:14:04;;;;;;;9.93;4.32;;;14.40;99.90;;;;;;4986194;28;20053;-53
2021/09/13 03:16:30;;;;;;;10.07;4.63;;;14.40;99.90;;;;;;5000188;28;20387;-49
2021/09/13 03:18:56;;;;;;;14.73;5.20;;;14.50;99.90;;;;;;4994151;28;20046;-52
2021/09/13 03:21:21;;;;;;;11.57;5.05;;;14.50;99.90;;;;;;4997808;28;20041;-54
2021/09/13 03:23:47;;;;;;;10.75;4.60;;;14.40;99.90;;;;;;5002393;28;20050;-54
2021/09/13 03:26:12;;;;;;;15.82;5.45;;;14.50;99.90;;;;;;5001190;28;20046;-54
2021/09/13 03:28:38;;;;;;;11.10;4.93;;;14.50;99.90;;;;;;5011741;28;20489;-54
2021/09/13 03:31:04;;;;;;;12.52;5.15;;;14.50;99.90;;;;;;5005817;28;20114;-53
2021/09/13 03:33:30;;;;;;;10.68;5.13;;;14.50;99.90;;;;;;4999403;28;20138;-54
2021/09/13 03:35:56;;;;;;;10.40;5.18;;;14.50;99.90;;;;;;5005088;28;20049;-51
2021/09/13 03:38:21;;;;;;;10.27;5.10;;;14.40;99.90;;;;;;5013225;28;20042;-54
2021/09/13 03:40:47;;;;;;;12.43;5.28;;;14.50;99.90;;;;;;5001683;28;20041;-54
2021/09/13 03:43:13;;;;;;;13.10;5.47;;;14.50;99.90;;;;;;5023526;28;20057;-53
2021/09/13 03:45:39;;;;;;;9.70;4.88;;;14.50;99.90;;;;;;5011067;28;20039;-51
2021/09/13 03:48:05;;;;;;;11.88;5.10;;;14.40;99.90;;;;;;5007589;28;20478;-51
2021/09/13 03:50:31;;;;;;;9.15;4.63;;;14.40;99.90;;;;;;5006849;28;20047;-54
2021/09/13 03:52:56;;;;;;;11.80;4.88;;;14.50;99.90;;;;;;4999890;28;20041;-54
2021/09/13 03:55:22;;;;;;;10.80;5.18;;;14.50;99.90;;;;;;5003747;28;20490;-51
2021/09/13 03:57:47;;;;;;;12.55;5.47;;;14.50;99.90;;;;;;4998612;28;20037;-51
2021/09/13 04:00:13;;;;;;;9.32;5.00;;;14.50;99.90;;;;;;5004454;28;20100;-53
2021/09/13 04:02:43;;;;;;;11.65;5.60;;;14.50;99.90;;;;;;5008476;28;20062;-51
2021/09/13 04:05:11;;;;;;;10.95;4.95;;;14.50;99.90;;;;;;5024375;28;20042;-51
2021/09/13 04:08:00;;;;;;;11.38;5.65;;;14.50;99.90;;;;;;5010892;28;20041;-54
2021/09/13 04:10:29;;;;;;;8.57;5.20;;;14.50;99.90;;;;;;5000574;28;20042;-54
2021/09/13 04:12:54;;;;;;;10.95;5.32;;;14.50;99.90;;;;;;4965089;28;20038;-53
2021/09/13 04:15:20;;;;;;;10.57;5.43;;;14.50;99.90;;;;;;5017561;28;20083;-53
2021/09/13 04:17:45;;;;;;;11.13;5.82;;;14.50;99.90;;;;;;4993512;28;20065;-53
2021/09/13 04:20:12;;;;;;;11.98;5.90;;;14.50;99.90;;;;;;4995839;28;20049;-54
2021/09/13 04:22:37;;;;;;;12.25;5.88;;;14.50;99.90;;;;;;4981691;28;20121;-54
2021/09/13 04:25:04;;;;;;;11.82;5.80;;;14.50;99.90;;;;;;5005223;28;20121;-52
2021/09/13 04:27:30;;;;;;;12.73;5.68;;;14.50;99.90;;;;;;4994262;28;20038;-55
2021/09/13 04:29:57;;;;;;;11.43;5.90;;;14.50;99.90;;;;;;5007946;28;20677;-55
2021/09/13 04:32:22;;;;;;;14.23;6.38;;;14.60;99.90;;;;;;4998297;28;20090;-55
2021/09/13 04:34:48;;;;;;;12.05;6.43;;;14.60;99.90;;;;;;5003494;28;20468;-54
2021/09/13 04:37:14;;;;;;;12.13;6.15;;;14.60;99.90;;;;;;4996884;28;20049;-54
2021/09/13 04:39:39;;;;;;;10.23;5.68;;;14.60;99.90;;;;;;5007360;28;20046;-54
2021/09/13 04:42:05;;;;;;;12.73;5.53;;;14.50;99.90;;;;;;5007229;28;20053;-54
2021/09/13 04:44:30;;;;;;;12.07;6.18;;;14.60;99.90;;;;;;5003552;28;20042;-51
2021/09/13 04:46:56;;;;;;;13.50;6.05;;;14.50;99.90;;;;;;5005715;28;20793;-50
2021/09/13 04:49:24;;;;;;;13.23;5.55;;;14.60;99.90;;;;;;5009903;28;20505;-51
2021/09/13 04:51:50;;;;;;;12.48;5.72;;;14.60;99.90;;;;;;4993583;28;20096;-52
2021/09/13 04:54:15;;;;;;;11.60;6.00;;;14.50;99.90;;;;;;5000807;28;20064;-52
2021/09/13 04:56:41;;;;;;;11.75;6.32;;;14.60;99.90;;;;;;5011554;28;20410;-53
2021/09/13 04:59:08;;;;;;;12.38;6.50;;;14.50;99.90;;;;;;4991722;28;20026;-50
2021/09/13 05:01:35;;;;;;;11.35;5.95;;;14.60;99.90;;;;;;4990533;28;20034;-51
2021/09/13 05:04:02;;;;;;;15.50;6.55;;;14.50;99.90;;;;;;5008750;28;20379;-52
2021/09/13 05:06:28;;;;;;;14.07;6.72;;;14.50;99.90;;;;;;4992421;28;20042;-51
2021/09/13 05:08:54;;;;;;;12.73;6.28;;;14.60;99.90;;;;;;5004030;28;20096;-52
2021/09/13 05:11:19;;;;;;;11.70;6.45;;;14.50;99.90;;;;;;4993968;28;20038;-55
2021/09/13 05:13:45;;;;;;;11.88;7.03;;;14.60;99.90;;;;;;4992048;28;20034;-53
2021/09/13 05:16:11;;;;;;;11.85;6.50;;;14.60;99.90;;;;;;4997530;28;20093;-52
2021/09/13 05:18:39;;;;;;;11.48;6.78;;;14.60;99.90;;;;;;4991673;28;20030;-53
2021/09/13 05:21:05;;;;;;;12.70;6.90;;;14.60;99.90;;;;;;4992676;28;20045;-49
2021/09/13 05:23:30;;;;;;;13.40;6.45;;;14.60;99.90;;;;;;4979782;28;20124;-53
2021/09/13 05:25:56;;;;;;;14.40;7.03;;;14.60;99.90;;;;;;5000789;28;20498;-55
2021/09/13 05:28:22;;;;;;;15.35;6.28;;;14.60;99.90;;;;;;5010392;28;20409;-53
2021/09/13 05:30:50;;;;;;;11.45;6.15;;;14.60;99.90;;;;;;5011858;28;20045;-50
2021/09/13 05:33:17;;;;;;;12.32;6.45;;;14.60;99.90;;;;;;4945692;28;20030;-55
2021/09/13 05:35:43;;;;;;;11.05;6.45;;;14.60;99.90;;;;;;4991066;28;20042;-54
2021/09/13 05:38:09;;;;;;;14.10;7.00;;;14.60;99.90;;;;;;4976077;28;20096;-51
2021/09/13 05:40:35;;;;;;;12.93;6.15;;;14.60;99.90;;;;;;4959013;28;20049;-52
2021/09/13 05:43:04;;;;;;;10.27;6.60;;;14.60;99.90;;;;;;5003419;28;20042;-52
2021/09/13 05:45:34;;;;;;;12.15;6.18;;;14.60;99.90;;;;;;4980250;28;20046;-55
2021/09/13 05:47:59;;;;;;;15.20;6.90;;;14.60;99.90;;;;;;4976944;28;20049;-55
2021/09/13 05:50:25;;;;;;;11.32;6.15;;;14.60;99.90;;;;;;4986850;28;20038;-54
2021/09/13 05:52:51;;;;;;;12.05;6.07;;;14.60;99.90;;;;;;4979211;28;20042;-55
2021/09/13 05:55:16;;;;;;;12.75;6.90;;;14.60;99.90;;;;;;4970284;28;20049;-55
2021/09/13 05:57:42;;;;;;;13.95;6.50;;;14.70;99.90;;;;;;5002710;28;20066;-55
2021/09/13 06:00:08;;;;;;;12.02;6.15;;;14.70;99.90;;;;;;5009104;28;20129;-55
2021/09/13 06:02:34;;;;;;;12.32;6.00;;;14.70;99.90;;;;;;5001060;28;20061;-55
2021/09/13 06:05:00;;;;;;;12.18;6.18;;;14.70;99.90;;;;;;5003956;28;20556;-55
2021/09/13 06:07:26;;;;;;;13.40;7.18;;;14.70;99.90;;;;;;4996700;28;20070;-55
2021/09/13 06:09:51;;;;;;;11.77;6.45;;;14.80;99.90;;;;;;5000983;28;20112;-54
2021/09/13 06:12:17;;;;;;;12.13;6.07;;;14.80;99.90;;;;;;4996552;28;20038;-53
2021/09/13 06:14:44;;;;;;;12.15;6.03;;;14.80;99.90;;;;;;4998979;28;20040;-54
2021/09/13 06:17:10;;;;;;;14.60;6.15;;;14.80;99.90;;;;;;4993548;28;20117;-54
2021/09/13 06:19:36;;;;;;;14.02;6.38;;;14.90;99.90;;;;;;5005065;28;20046;-54
2021/09/13 06:22:03;;;;;;;12.23;6.70;;;14.90;99.90;;;;;;5004623;28;20041;-54
2021/09/13 06:24:29;;;;;;;13.38;6.57;;;14.90;99.90;;;;;;5007249;28;20053;-50
2021/09/13 06:26:55;;;;;;;11.98;6.18;;;14.90;99.90;;;;;;5012120;28;20670;-54
2021/09/13 06:29:20;;;;;;;10.00;6.40;;;14.90;99.90;;;;;;5011810;28;20052;-54
2021/09/13 06:31:46;;;;;;;11.55;5.80;;;15.00;99.90;;;;;;5011486;28;20372;-54
2021/09/13 06:34:15;;;;;;;13.50;6.68;;;15.00;99.90;;;;;;5012561;28;20037;-54
2021/09/13 06:36:42;;;;;;;11.10;6.68;;;15.00;99.90;;;;;;5002585;28;20033;-54
2021/09/13 06:39:11;;;;;;;13.40;6.85;;;15.00;99.90;;;;;;4978373;28;20053;-54
2021/09/13 06:41:37;;;;;;;10.88;6.72;;;15.10;99.90;;;;;;4994884;28;20038;-53
2021/09/13 06:44:03;;;;;;;12.70;6.13;;;15.10;99.90;;;;;;4977436;28;20084;-54
2021/09/13 06:49:21;;;;;;;12.75;6.05;;;15.20;99.90;;;;;;4971211;28;20045;-52
2021/09/13 06:51:46;;;;;;;12.55;5.80;;;15.20;99.90;;;;;;4996088;28;20407;-54
2021/09/13 06:54:12;;;;;;;10.30;5.43;;;15.20;99.90;;;;;;4995355;28;20065;-55
2021/09/13 06:56:38;;;;;;;12.43;6.07;;;15.20;99.90;;;;;;5011804;28;20045;-53
2021/09/13 06:59:04;;;;;;;14.63;6.45;;;15.30;99.90;;;;;;5011504;28;20056;-54
2021/09/13 07:01:33;;;;;;;12.25;6.35;;;15.30;99.90;;;;;;4989174;28;20037;-50
2021/09/13 07:04:00;;;;;;;12.40;5.10;;;15.30;99.90;;;;;;5012252;28;20498;-53
2021/09/13 07:06:27;;;;;;;10.43;5.55;;;15.40;99.90;;;;;;4996498;28;20038;-51
2021/09/13 07:08:54;;;;;;;12.52;5.38;;;15.40;99.90;;;;;;4987781;28;20128;-50
2021/09/13 07:11:20;;;;;;;12.02;5.50;;;15.40;99.90;;;;;;4994356;28;20044;-54
2021/09/13 07:13:45;;;;;;;15.23;5.45;;;15.50;99.90;;;;;;4981259;28;20109;-54
2021/09/13 07:16:11;;;;;;;13.52;5.25;;;15.50;99.90;;;;;;4976110;28;20038;-54
2021/09/13 07:18:37;;;;;;;10.00;4.75;;;15.60;99.90;;;;;;4995507;28;20034;-54
2021/09/13 07:21:03;;;;;;;10.48;4.68;;;15.60;99.90;;;;;;4987771;28;20117;-55
2021/09/13 07:23:28;;;;;;;12.77;4.70;;;15.60;99.90;;;;;;5001623;28;20111;-55
2021/09/13 07:25:54;;;;;;;10.73;4.55;;;15.60;99.90;;;;;;5002285;28;20617;-55
2021/09/13 07:28:20;;;;;;;11.85;4.35;;;15.70;99.90;;;;;;4998299;28;20064;-54
2021/09/13 07:30:48;;;;;;;11.23;4.25;;;15.70;99.90;;;;;;5011496;28;20445;-54
2021/09/13 07:33:14;;;;;;;16.05;4.13;;;15.80;99.90;;;;;;5004794;28;20042;-55
2021/09/13 07:35:39;;;;;;;13.20;4.00;;;15.80;99.90;;;;;;5002388;28;20423;-55
2021/09/13 07:38:05;;;;;;;12.20;3.70;;;15.90;99.90;;;;;;5010618;28;20121;-55
2021/09/13 07:40:30;;;;;;;12.75;4.05;;;16.00;99.90;;;;;;5003524;28;20049;-52
2021/09/13 07:42:57;;;;;;;11.95;4.03;;;16.00;99.90;;;;;;4977732;28;20073;-55
2021/09/13 07:45:24;;;;;;;15.57;3.70;;;16.00;99.90;;;;;;5002603;28;20105;-55
2021/09/13 07:47:51;;;;;;;11.05;3.45;;;16.00;99.90;;;;;;4990514;28;20034;-51
2021/09/13 07:50:17;;;;;;;10.95;3.40;;;16.10;99.90;;;;;;4991537;28;20495;-51
2021/09/13 07:52:43;;;;;;;11.55;2.95;;;16.10;99.90;;;;;;4978859;28;20400;-54
2021/09/13 07:55:09;;;;;;;10.02;3.20;;;16.20;99.90;;;;;;5009838;28;20129;-51
2021/09/13 07:57:35;;;;;;;8.13;2.80;;;16.20;99.90;;;;;;5011080;28;20045;-54
2021/09/13 08:00:01;;;;;;;7.10;2.47;;;16.30;99.90;;;;;;5010379;28;20045;-54
2021/09/13 08:02:27;;;;;;;7.88;2.28;;;16.30;99.90;;;;;;5011145;28;20038;-53
2021/09/13 08:04:53;;;;;;;9.23;2.10;;;16.40;99.10;;;;;;4976252;28;20049;-53
2021/09/13 08:07:18;;;;;;;8.98;2.20;;;16.40;99.00;;;;;;4991777;28;20406;-52
2021/09/13 08:09:44;;;;;;;4.63;1.85;;;16.40;98.40;;;;;;5010614;28;20030;-53
2021/09/13 08:12:09;;;;;;;8.63;2.28;;;16.50;96.60;;;;;;5011474;28;20041;-54
2021/09/13 08:14:35;;;;;;;6.03;2.03;;;16.60;95.50;;;;;;5004846;28;20033;-55
2021/09/13 08:17:01;;;;;;;5.68;2.10;;;16.60;96.60;;;;;;4976239;28;20038;-51
2021/09/13 08:19:27;;;;;;;9.45;1.98;;;16.60;96.80;;;;;;5004145;28;20415;-53
2021/09/13 08:21:52;;;;;;;8.40;1.90;;;16.60;96.80;;;;;;5007360;28;20042;-54
2021/09/13 08:24:18;;;;;;;6.57;1.63;;;16.70;96.20;;;;;;4993974;28;20138;-54
2021/09/13 08:26:43;;;;;;;5.70;1.60;;;16.80;95.10;;;;;;5006324;28;20042;-53
2021/09/13 08:29:17;;;;;;;5.47;1.48;;;16.90;93.40;;;;;;5010546;28;20034;-53
2021/09/13 08:31:43;;;;;;;5.35;1.70;;;17.00;93.70;;;;;;5012031;28;20045;-51
2021/09/13 08:34:09;;;;;;;8.70;1.60;;;16.90;94.10;;;;;;5000932;28;20042;-53
2021/09/13 08:36:35;;;;;;;7.00;1.67;;;17.00;92.90;;;;;;4998497;28;20495;-54
2021/09/13 08:39:01;;;;;;;6.57;1.92;;;17.00;93.10;;;;;;4976858;28;20050;-54
2021/09/13 08:41:26;;;;;;;8.57;2.10;;;17.00;92.90;;;;;;5008454;28;20095;-56
2021/09/13 08:43:52;;;;;;;7.82;1.77;;;17.00;92.70;;;;;;4994713;28;20066;-52
2021/09/13 08:46:22;;;;;;;8.02;1.90;;;17.10;91.10;;;;;;4974504;28;20133;-50
2021/09/13 08:48:59;;;;;;;7.88;1.63;;;17.10;91.60;;;;;;4994124;28;20042;-54
2021/09/13 08:51:31;;;;;;;8.02;1.60;;;17.10;92.20;;;;;;4985993;28;20030;-54
2021/09/13 08:54:02;;;;;;;4.65;1.50;;;17.10;92.40;;;;;;4975331;28;20041;-53
2021/09/13 08:56:33;;;;;;;4.93;1.42;;;17.20;91.10;;;;;;4976367;28;20053;-52
2021/09/13 08:58:59;;;;;;;5.63;1.60;;;17.20;91.90;;;;;;4994312;28;20046;-54
2021/09/13 09:01:27;;;;;;;6.57;1.58;;;17.20;90.70;;;;;;4976128;28;20053;-55
2021/09/13 09:03:54;;;;;;;5.30;1.40;;;17.30;90.50;;;;;;4993621;28;20049;-55
2021/09/13 09:06:31;;;;;;;4.78;1.42;;;17.20;90.90;;;;;;4993099;28;20034;-54
2021/09/13 09:08:59;;;;;;;7.20;1.63;;;17.20;91.10;;;;;;5003440;28;20066;-53
2021/09/13 09:11:24;;;;;;;9.15;1.63;;;17.20;91.30;;;;;;4966819;28;20093;-54
2021/09/13 09:13:50;;;;;;;9.77;1.80;;;17.20;91.60;;;;;;4982744;28;20050;-51
2021/09/13 09:16:16;;;;;;;7.45;1.98;;;17.20;90.80;;;;;;4999995;28;20442;-53
2021/09/13 09:18:49;;;;;;;5.05;1.60;;;17.20;91.20;;;;;;5004868;28;20053;-55
2021/09/13 09:21:31;;;;;;;5.85;1.60;;;17.20;92.00;;;;;;5005252;28;20453;-53
2021/09/13 09:24:02;;;;;;;6.72;1.63;;;17.20;91.90;;;;;;4992019;28;20034;-53
2021/09/13 09:26:29;;;;;;;5.90;1.77;;;17.20;91.80;;;;;;4991981;28;20398;-54
2021/09/13 09:28:58;;;;;;;4.70;1.90;;;17.30;91.80;;;;;;4999681;28;20041;-54
2021/09/13 09:31:42;;;;;;;6.78;1.40;;;17.30;91.60;;;;;;5011841;28;20034;-54
2021/09/13 09:34:15;;;;;;;7.70;1.50;;;17.40;90.70;;;;;;5010433;28;20037;-54
2021/09/13 09:36:42;;;;;;;5.80;1.50;;;17.40;90.80;;;;;;4997377;28;20034;-53
2021/09/13 09:39:12;;;;;;;3.78;1.40;;;17.30;90.70;;;;;;4975210;28;20035;-54
2021/09/13 09:41:43;;;;;;;10.50;1.90;;;17.40;91.00;;;;;;4959122;28;20070;-55
2021/09/13 09:44:10;;;;;;;6.75;1.55;;;17.40;91.10;;;;;;5009724;28;20034;-53
2021/09/13 09:46:42;;;;;;;4.72;1.35;;;17.50;84.40;;;;;;4977146;28;20045;-54
2021/09/13 09:49:18;;;;;;;5.60;1.42;;;17.50;86.70;;;;;;5009433;28;20041;-55
2021/09/13 09:51:51;;;;;;;6.00;1.40;;;17.40;88.60;;;;;;4993500;28;20034;-55
2021/09/13 09:54:23;;;;;;;5.85;1.73;;;17.40;88.60;;;;;;4985232;28;20033;-54
2021/09/13 09:56:58;;;;;;;6.18;1.50;;;17.50;87.90;;;;;;5001055;28;20100;-54
2021/09/13 09:59:23;;;;;;;6.57;1.67;;;17.50;89.20;;;;;;4998894;28;20038;-55
2021/09/13 10:01:54;;;;;;;3.38;1.27;;;17.50;90.20;;;;;;5012965;28;20041;-55
2021/09/13 10:04:25;;;;;;;8.88;1.60;;;17.60;86.20;;;;;;4969828;28;20035;-55
2021/09/13 10:06:54;;;;;;;7.32;1.88;;;17.70;86.80;;;;;;4988939;28;20046;-55
2021/09/13 10:09:21;;;;;;;6.45;1.70;;;17.70;87.10;;;;;;5011348;28;20092;-55
2021/09/13 10:11:48;;;;;;;4.38;1.48;;;17.80;88.10;;;;;;5012558;28;20068;-55
2021/09/13 10:14:19;;;;;;;6.20;1.85;;;17.70;88.20;;;;;;5011481;28;20588;-55
2021/09/13 10:16:45;;;;;;;7.40;1.75;;;17.80;88.30;;;;;;5011459;28;20061;-55
2021/09/13 10:19:12;;;;;;;5.13;1.67;;;17.90;87.60;;;;;;5010191;28;20083;-55
2021/09/13 10:21:38;;;;;;;5.38;1.30;;;17.90;87.10;;;;;;4995114;28;20030;-54
2021/09/13 10:24:16;;;;;;;5.35;1.52;;;18.00;85.70;;;;;;4991336;28;20041;-55
2021/09/13 10:26:47;;;;;;;5.75;1.63;;;18.00;83.90;;;;;;5013888;28;20046;-56
2021/09/13 10:29:12;;;;;;;6.00;1.60;;;17.90;85.20;;;;;;5012908;28;20070;-55
2021/09/13 10:31:47;;;;;;;5.78;1.48;;;17.90;85.30;;;;;;5014215;28;20069;-55
2021/09/13 10:34:19;;;;;;;11.65;1.60;;;17.80;87.40;;;;;;5006057;28;20042;-56
2021/09/13 10:37:25;;;;;;;5.80;1.50;;;17.80;86.40;;;;;;5008822;28;20567;-54
2021/09/13 10:40:09;;;;;;;8.13;1.67;;;17.90;82.90;;;;;;4991854;28;20101;-54
2021/09/13 10:42:39;;;;;;;7.13;1.40;;;17.80;85.50;;;;;;5005768;28;20038;-54
2021/09/13 10:45:18;;;;;;;5.30;1.25;;;17.80;85.00;;;;;;4993039;28;20053;-54
2021/09/13 10:48:08;;;;;;;2.60;1.20;;;17.80;83.70;;;;;;5010317;28;20076;-54
2021/09/13 10:50:42;;;;;;;7.53;1.10;;;17.80;86.00;;;;;;4995200;28;20398;-53
2021/09/13 10:53:17;;;;;;;4.65;1.20;;;17.80;85.00;;;;;;5009647;28;20038;-57
2021/09/13 10:55:56;;;;;;;4.65;1.50;;;17.70;85.60;;;;;;5010024;28;20041;-53
2021/09/13 10:58:45;;;;;;;3.97;1.20;;;17.70;86.10;;;;;;5009122;28;20030;-53
2021/09/13 11:01:21;;;;;;;4.53;1.52;;;17.80;87.70;;;;;;5009788;28;20041;-50
2021/09/13 11:03:49;;;;;;;4.25;1.55;;;17.80;87.40;;;;;;5005139;28;20034;-53
2021/09/13 11:06:15;;;;;;;4.63;1.15;;;17.80;86.70;;;;;;5005319;28;20042;-53
2021/09/13 11:08:51;;;;;;;3.17;1.40;;;17.90;85.60;;;;;;5007206;28;20057;-55
2021/09/13 11:11:37;;;;;;;5.90;1.40;;;18.00;84.80;;;;;;5010330;28;20045;-53
2021/09/13 11:14:16;;;;;;;5.75;1.30;;;18.10;83.60;;;;;;5005012;28;20116;-52
2021/09/13 11:16:45;;;;;;;4.45;1.50;;;18.10;84.10;;;;;;5012939;28;20125;-55
2021/09/13 11:19:12;;;;;;;3.42;1.45;;;18.10;84.00;;;;;;4989725;28;20046;-54
2021/09/13 11:21:44;;;;;;;7.95;1.63;;;18.20;85.10;;;;;;5011937;28;20038;-51
2021/09/13 11:24:12;;;;;;;7.13;1.63;;;18.40;81.60;;;;;;5011771;28;20038;-52
2021/09/13 11:26:47;;;;;;;3.65;1.27;;;18.60;78.80;;;;;;4995477;28;20073;-52
2021/09/13 11:29:14;;;;;;;4.68;1.30;;;18.50;80.10;;;;;;4966862;28;20042;-54
2021/09/13 11:31:41;;;;;;;5.93;1.50;;;18.40;81.50;;;;;;5011294;28;20036;-52
2021/09/13 11:34:12;;;;;;;8.65;1.58;;;18.30;82.80;;;;;;5010556;28;20100;-54
2021/09/13 11:36:38;;;;;;;4.13;1.47;;;18.20;84.60;;;;;;4999030;28;20042;-51
2021/09/13 11:39:08;;;;;;;3.28;1.30;;;18.20;85.30;;;;;;5005134;28;20299;-55
2021/09/13 11:41:35;;;;;;;7.22;1.30;;;18.20;85.00;;;;;;5010203;28;20046;-56
2021/09/13 11:44:02;;;;;;;12.18;1.60;;;18.10;84.90;;;;;;5013407;28;20052;-57
2021/09/13 11:46:28;;;;;;;4.43;1.88;;;18.20;82.80;;;;;;5001357;28;20042;-54
2021/09/13 11:48:54;;;;;;;4.32;1.10;;;18.20;83.20;;;;;;5002814;28;20041;-51
2021/09/13 11:51:19;;;;;;;2.10;1.10;;;18.10;81.60;;;;;;5012937;28;20406;-50
2021/09/13 11:54:07;;;;;;;3.92;1.35;;;18.10;82.00;;;;;;5012008;28;20038;-52
2021/09/13 11:56:33;;;;;;;6.90;1.38;;;18.10;82.90;;;;;;5013709;28;20528;-55
2021/09/13 11:58:59;;;;;;;6.57;1.45;;;18.10;80.50;;;;;;4986743;28;20125;-52
2021/09/13 12:01:25;;;;;;;7.55;1.38;;;18.00;81.80;;;;;;4972233;28;20506;-54
2021/09/13 12:03:50;;;;;;;4.10;1.10;;;18.00;83.30;;;;;;5005144;28;20037;-52
2021/09/13 12:06:19;;;;;;;3.03;1.13;;;18.10;83.40;;;;;;5006001;28;20045;-54
2021/09/13 12:08:45;;;;;;;4.28;1.30;;;18.10;84.20;;;;;;4988055;28;20034;-50
2021/09/13 12:11:13;;;;;;;5.47;1.30;;;18.10;84.60;;;;;;5011738;28;20034;-53
2021/09/13 12:13:40;;;;;;;4.07;1.20;;;18.10;84.80;;;;;;4988343;28;20088;-55
2021/09/13 12:16:09;;;;;;;3.92;1.23;;;18.20;85.10;;;;;;5010618;28;20057;-53
2021/09/13 12:18:34;;;;;;;4.22;1.30;;;18.20;85.10;;;;;;5003900;28;20048;-55
2021/09/13 12:21:00;;;;;;;4.82;1.40;;;18.20;85.90;;;;;;5013760;28;20037;-52
2021/09/13 12:23:28;;;;;;;6.20;1.35;;;18.20;83.70;;;;;;4974146;28;20084;-55
2021/09/13 12:26:02;;;;;;;3.63;1.48;;;18.20;84.30;;;;;;5010552;28;20572;-56
2021/09/13 12:28:30;;;;;;;5.28;1.40;;;18.20;84.80;;;;;;5006275;28;20029;-53
2021/09/13 12:31:24;;;;;;;6.05;1.35;;;18.20;85.40;;;;;;5007791;28;20577;-52
2021/09/13 12:33:49;;;;;;;6.03;1.40;;;18.20;83.40;;;;;;5010271;28;20046;-54
2021/09/13 12:36:24;;;;;;;4.97;1.80;;;18.20;83.50;;;;;;5002563;28;20595;-52
2021/09/13 12:38:54;;;;;;;7.30;1.42;;;18.20;84.20;;;;;;5006675;28;20041;-56
2021/09/13 12:41:38;;;;;;;5.40;1.52;;;18.20;85.30;;;;;;4988544;28;20516;-57
2021/09/13 12:44:14;;;;;;;4.43;1.45;;;18.20;86.20;;;;;;4981874;28;20054;-54
2021/09/13 12:47:07;;;;;;;4.43;1.40;;;18.30;85.70;;;;;;5004057;28;20486;-55
2021/09/13 12:49:44;;;;;;;5.72;1.33;;;18.30;83.80;;;;;;4997328;28;20050;-53